Station info - map view · info · telemetry · weather · raw · status · beacons · messages · bulletins · browse · moving · my account
Callsign, ship name or locator: Clear       
It is possible to search using wildcards (*?) after a prefix. Example: OH*
APRS station NK0M-9 - show graphs
Map loading...
Comment: 146.520MHz
Mic-E message: Off duty
Location: 39°52.77' N 86°29.16' W - locator EM69SV11QB - show map - static map
1.5 miles Northwest bearing 317° from Pittsboro, Hendricks County, Indiana, United States [?]
8.5 miles North bearing 15° from Danville, Hendricks County, Indiana, United States
19.0 miles Northwest bearing 294° from Indianapolis, Marion County, Indiana, United States
49.4 miles North bearing 2° from Bloomington, Monroe County, Indiana, United States
Last position: 2018-05-20 09:14:31 EDT (34m32s ago)
2018-05-20 09:14:31 EDT local time at Pittsboro, United States [?]
Altitude: 968 ft
Course: 269°
Speed: 74 MPH
Last telemetry: 2018-01-27 11:26:35 EST (112d 21h22m ago) – show telemetry
Ch 1: 448, Ch 2: 574, Ch 3: 0, Ch 4: 0, Ch 5: 0
 1     2     3     4     5     6     7     8 
Device: Kenwood: TM-D710 (rig)
Last path: NK0M-9>SYUR7W via W9ICE-10,WIDE1*,WIDE2-1,qAR,KA9DTZ-1 (good)
Positions stored: 20998
Packet rate: 124 seconds between packets on average during 6183 seconds.
Other SSIDs: NK0M
Stations near current position of NK0M-9 - show more
callsign distance last heard - EDT      callsign distance last heard - EDT
N0BKB-71.7 miles 282°2018-05-20 09:47:30 KD9AGH-93.0 miles 278°2018-05-12 07:44:01
EW85983.1 miles 50°2018-05-20 09:48:55 W9BU-74.1 miles 138°2018-05-13 06:46:23
KJ9B-15.0 miles 78°2018-05-20 09:40:56 FW19016.0 miles 129°2018-05-20 09:46:05
KD7YUF-77.2 miles 176°2018-05-20 09:46:27 W9YZU7.9 miles 146°2018-05-19 19:44:37
KD9ILU-28.1 miles 68°2018-05-20 09:40:27 WX9HC8.2 miles 210°2018-05-20 09:32:55
KB9RDO8.4 miles 295°2018-05-20 09:45:04 W9THR-98.5 miles 36°2018-05-17 07:26:46
W9JRW-149.5 miles 18°2018-05-20 09:48:16 AC9HP9.6 miles 142°2018-05-20 09:34:34
WD9HFT-59.6 miles 17°2018-05-20 09:48:19 KD9EJQ10.2 miles 126°2018-05-13 20:23:34
AC9HP-110.4 miles 130°2018-05-08 17:10:00 KU9V-910.7 miles 129°2018-05-18 23:08:18
K8VGL10.8 miles 123°2018-05-20 09:34:28 KC9CQU-710.8 miles 129°2018-05-10 14:12:34
Stations which heard NK0M-9 directly on radio –
callsign pkts first heard - EDT last heard longest (tx => rx) longest at - EDT
N9QIP-4 2 2018-05-17 09:47:28 2018-05-17 09:49:00 EN44RA > EN43RV 9.8 miles 199° 2018-05-17 09:49:00
W9LTA-10 4 2018-05-17 10:19:44 2018-05-17 10:36:12 EN53EN > EN54FA 32.9 miles 8° 2018-05-17 10:36:12
W9MKS-15 5 2018-05-17 13:44:46 2018-05-17 13:51:49 EN51LD > EN51ME 6.1 miles 53° 2018-05-17 13:51:49
WA9RES 6 2018-05-17 14:49:18 2018-05-17 15:19:46 EN50QF > EN50UF 16.9 miles 95° 2018-05-17 14:49:18
KB9ZWL 1 2018-05-17 08:32:21 2018-05-17 08:32:21 EN44FS > EN44FT 2.9 miles 9° 2018-05-17 08:32:21
N0QVC-1 1 2018-05-12 21:23:45 2018-05-12 21:23:45 EN34ES > EN34JH 38.2 miles 150° 2018-05-12 21:23:45
N9QIP-5 4 2018-05-17 10:46:46 2018-05-17 10:54:45 EN53GK > EN53HI 6.9 miles 143° 2018-05-17 10:46:46
WT9M-5 1 2018-05-17 11:04:03 2018-05-17 11:04:03 EN53HE > EN53HB 8.9 miles 204° 2018-05-17 11:04:03
KA0AZS 30 2018-05-17 19:47:54 2018-05-20 06:48:28 EM79VP > EM79VQ 4.2 miles 343° 2018-05-19 08:25:36
N9QIP-11 11 2018-05-17 11:20:14 2018-05-17 11:45:04 EN52KX > EN52LT 11.2 miles 168° 2018-05-17 11:21:14
N9AMN-2 3 2018-05-17 17:10:08 2018-05-20 08:56:05 EM69UT > EM69WR 9.9 miles 137° 2018-05-17 17:10:08
N9MEC 1 2018-05-17 07:15:10 2018-05-17 07:15:10 EN34JU > EN34JQ 11.5 miles 186° 2018-05-17 07:15:10
K9APR-5 9 2018-05-17 18:32:23 2018-05-20 07:50:21 EM79IU > EM79LV 14.1 miles 80° 2018-05-17 18:32:23
K0LAV-8 1 2018-05-17 07:27:14 2018-05-17 07:27:14 EN34MV > EN35LB 10.3 miles 346° 2018-05-17 07:27:14
KC6VVT 2 2018-05-17 13:40:46 2018-05-17 13:42:46 EN51LF > EN51LF 1.9 miles 167° 2018-05-17 13:40:46
N9OQW 4 2018-05-17 15:31:26 2018-05-17 15:39:58 EN50XC > EM69AV 17.3 miles 160° 2018-05-17 15:31:26
WA8ZWJ-1 4 2018-05-17 19:26:49 2018-05-19 19:32:28 EM79WS > EM79TV 13.4 miles 310° 2018-05-19 19:32:28
KF0ZH 157 2018-05-01 17:00:06 2018-05-17 07:04:14 EN34IS > EN34GS 11.4 miles 270° 2018-05-09 16:12:43
W8BLV 19 2018-05-17 19:54:10 2018-05-20 06:40:57 EM79VQ > EM79TM 14.8 miles 207° 2018-05-18 22:23:28
N9PE-2 6 2018-05-17 14:16:20 2018-05-17 14:26:13 EN50LO > EN50ML 10.5 miles 166° 2018-05-17 14:16:20
WC8EMA 28 2018-05-17 19:45:43 2018-05-20 06:41:16 EM79WU > EM79WL 27.7 miles 187° 2018-05-18 22:05:05
K0JDD-1 2 2018-05-17 07:21:29 2018-05-17 07:23:39 EN34LV > EN34MV 5.5 miles 81° 2018-05-17 07:21:29
KI6SZ-2 50 2018-05-17 19:23:09 2018-05-20 07:03:01 EM79SU > EM79WT 18.3 miles 94° 2018-05-17 19:23:09
N9QIP-9 1 2018-05-17 09:02:28 2018-05-17 09:02:28 EN44JN > EN44HC 34.3 miles 191° 2018-05-17 09:02:28
AITKIN 20 2018-05-04 20:52:57 2018-05-08 16:18:53 EN36LP > EN36DM 31.3 miles 256° 2018-05-05 17:46:39
N8NQH-1 7 2018-05-19 08:56:38 2018-05-19 11:26:20 EM89AQ > EM79XP 7.3 miles 255° 2018-05-19 09:10:39
W0KGW-10 19 2018-05-04 20:06:12 2018-05-08 17:05:34 EN36IJ > EN36HC 21.2 miles 197° 2018-05-08 16:32:52
W9ICE-10 41 2018-05-17 16:46:49 2018-05-20 09:14:31 EM69QX > EM69VV 24.2 miles 102° 2018-05-17 16:46:49
K0YTH-13 2 2018-05-03 17:10:00 2018-05-03 17:44:22 EN34IS > EN35IA 18.2 miles 356° 2018-05-03 17:10:00
W8VFR-1 7 2018-05-17 19:12:35 2018-05-18 22:33:32 EM79VP > EM79PO 23.6 miles 265° 2018-05-18 22:33:32
W8VFR-2 4 2018-05-17 18:51:24 2018-05-20 07:26:04 EM79NU > EM79OU 4.0 miles 103° 2018-05-17 18:51:24
W8VFR-9 2 2018-05-19 20:29:50 2018-05-20 07:16:30 EM79VP > EM79QR 21.4 miles 287° 2018-05-19 20:29:50
W8VFR-10 2 2018-05-17 18:57:03 2018-05-17 18:59:05 EM79PT > EM79PS 4.0 miles 194° 2018-05-17 18:59:05
KB8RQB-1 2 2018-05-20 07:22:28 2018-05-20 07:24:28 EM79OT > EM79PT 4.1 miles 127° 2018-05-20 07:24:28
W8VFR-3 40 2018-05-17 19:45:36 2018-05-20 06:46:44 EM79WT > EM79TP 17.9 miles 230° 2018-05-18 22:12:36
W8VFR-4 17 2018-05-17 19:22:19 2018-05-20 07:10:28 EM89AT > EM79TR 21.8 miles 258° 2018-05-19 11:38:52
KB9TEN 6 2018-05-17 10:56:45 2018-05-17 11:07:23 EN53HG > EN53ID 8.8 miles 158° 2018-05-17 10:56:45
WB0MPE-8 1 2018-05-17 07:54:37 2018-05-17 07:54:37 EN34TW > EN34TN 24.5 miles 183° 2018-05-17 07:54:37
N9ROY-13 1 2018-05-17 09:46:59 2018-05-17 09:46:59 EN44RA > EN44OA 15.1 miles 270° 2018-05-17 09:46:59
N8VKX-10 7 2018-05-17 19:09:00 2018-05-20 07:12:28 EM79SU > EM79RU 6.4 miles 278° 2018-05-17 19:23:08
W0MXW-3 1 2018-05-17 07:56:36 2018-05-17 07:56:36 EN34UW > EN33QW 71.8 miles 193° 2018-05-17 07:56:36
KS9N-10 6 2018-05-17 18:44:23 2018-05-20 07:41:16 EM79KU > EM79NT 13.6 miles 99° 2018-05-20 07:41:16
W8VFR-11 1 2018-05-17 18:46:36 2018-05-17 18:46:36 EM79MU > EM79NO 18.7 miles 168° 2018-05-17 18:46:36
N9ROY-7 2 2018-05-17 10:09:45 2018-05-17 10:11:17 EN43XT > EN43VR 10.1 miles 229° 2018-05-17 10:11:17
KC6NLX-9 1 2018-05-19 11:35:40 2018-05-19 11:35:40 EM89AS > EM79XT 1.1 miles 321° 2018-05-19 11:35:40
KB0HQD-10 1 2018-05-17 07:32:05 2018-05-17 07:32:05 EN34NW > EN35NA 4.2 miles 11° 2018-05-17 07:32:05
WB0MPE-13 1 2018-05-17 07:58:46 2018-05-17 07:58:46 EN34UW > EN35UB 10.2 miles 353° 2018-05-17 07:58:46
N9EM 7 2018-05-17 11:09:23 2018-05-17 11:19:29 EN53IB > EN53JA 6.5 miles 129° 2018-05-17 11:09:23
W9IKU-3 2 2018-05-17 10:40:16 2018-05-17 10:44:15 EN53GK > EN53GN 6.2 miles 9° 2018-05-17 10:44:15
W0YC-5 129 2018-05-01 16:57:28 2018-05-17 07:24:59 EN34ES > EN34JX 23.7 miles 56° 2018-05-12 21:23:47
WE9MA-3 3 2018-05-20 07:37:27 2018-05-20 07:54:44 EM79LU > EM79HW 17.5 miles 288° 2018-05-20 07:37:27
N0AGI-1 149 2018-05-01 16:55:25 2018-05-17 07:52:33 EN34SW > EN35FB 56.4 miles 278° 2018-05-17 07:52:33
WB9CNE 8 2018-05-17 17:59:21 2018-05-17 18:15:43 EM79ET > EM79CT 9.5 miles 263° 2018-05-17 18:15:43
KD8LXB-10 7 2018-05-17 19:13:13 2018-05-20 06:40:30 EM79VP > EM79QR 20.7 miles 293° 2018-05-20 06:40:30
KC8RFE-1 8 2018-05-17 14:57:18 2018-05-17 15:14:33 EN50SF > EN50UC 9.6 miles 128° 2018-05-17 14:57:18
N0HOY-10 11 2018-05-03 16:25:53 2018-05-16 14:49:12 EN34IQ > EN35KB 26.1 miles 14° 2018-05-03 16:25:53
WB9EOC-10 1 2018-05-17 16:51:22 2018-05-17 16:51:22 EM69RW > EM69NP 25.6 miles 219° 2018-05-17 16:51:22
N2RON 2 2018-05-17 11:54:31 2018-05-17 11:56:21 EN52MM > EN52LL 4.3 miles 238° 2018-05-17 11:54:31
VE3MAT-9 2 2018-05-18 08:21:18 2018-05-18 08:40:24 EM89AQ > EM79XR 5.9 miles 292° 2018-05-18 08:40:24
K9ZQ-8 10 2018-05-17 13:25:38 2018-05-17 13:50:52 EN51LF > EN51JL 17.9 miles 335° 2018-05-17 13:50:52
W8VFR-8 2 2018-05-17 19:12:33 2018-05-17 19:14:11 EM79QT > EM79QW 6.1 miles 2° 2018-05-17 19:12:33
KD8QFM-3 2 2018-05-20 06:57:49 2018-05-20 07:02:22 EM79UU > EM79VV 5.2 miles 59° 2018-05-20 07:02:22
KC9SQR-15 6 2018-05-17 12:10:45 2018-05-17 12:20:04 EN52LC > EN52LG 11.0 miles 346° 2018-05-17 12:20:04
KE0CRR-10 7 2018-05-08 17:55:02 2018-05-08 18:09:00 EN35JN > EN35IK 7.2 miles 190° 2018-05-08 17:55:02
KD9APX-10 11 2018-05-17 18:34:11 2018-05-20 07:56:02 EM79HU > EM79MP 28.3 miles 122° 2018-05-20 07:56:02
N0KFB-3 11 2018-05-04 16:48:53 2018-05-14 10:22:52 EN34HX > EN35JC 12.6 miles 46° 2018-05-14 10:22:52
KE0JMK-2 10 2018-05-18 08:26:00 2018-05-20 06:55:44 EM79XU > EM79WR 10.7 miles 203° 2018-05-18 22:07:34
WB0VGI-1 1 2018-05-08 17:53:18 2018-05-08 17:53:18 EN35JN > EN35LN 7.9 miles 87° 2018-05-08 17:53:18
W9TJK-1 1 2018-05-17 11:30:22 2018-05-17 11:30:22 EN52LT > EN53TB 36.5 miles 58° 2018-05-17 11:30:22
MNORBS 86 2018-05-01 16:53:32 2018-05-17 06:56:53 EN34JT > EN34GP 16.2 miles 228° 2018-05-16 14:45:09
KD0TLS-1 5 2018-05-04 16:44:51 2018-05-08 18:51:52 EN35GC > EN35GA 4.6 miles 160° 2018-05-04 16:51:41
N9XKH-10 4 2018-05-17 11:56:33 2018-05-17 12:01:18 EN52MK > EN52IM 17.7 miles 287° 2018-05-17 12:01:18

Only position packets which were originated by the station are shown here. The range statistics show some extra long hops, because some digipeaters do not correctly add themselves to the digipeater path. Please check the raw packets.
About this site
This page shows real-time information collected from the Automatic Position Reporting System Internet network (APRS-IS). APRS is used by amateur (ham) radio operators to transmit real-time position information, weather data, telemetry and messages over the radio. A vehicle equipped with a GPS receiver, a VHF transmitter or HF transceiver and a small computer device called a tracker transmits it's location, speed and course in a small data packet, which is then received by a nearby iGate receiving site which forwards the packet on the Internet. Systems connected to the Internet can send information on the APRS-IS without a radio transmitter, or collect and display information transmitted anywhere in the world.
FAQ · Blog · Discussion group · Linking to aprs.fi · AIS sites · Service status · Database statistics · Advertising on aprs.fi · Technical details · API · Change log · Planned changes · Credits and thanks · Terms Of Service · iPhone/iPad APRS